sensor_id;sensor_type;location;lat;lon;timestamp;pressure;altitude;pressure_sealevel;temperature;humidity
62980;BME280;49075;53.988;27.678;2022-10-31T00:04:03;986.6;;;3.8;62.6
62980;BME280;49075;53.988;27.678;2022-10-31T00:09:35;986.6;;;3.7;62.6
62980;BME280;49075;53.988;27.678;2022-10-31T00:14:29;986.6;;;3.6;62.8
62980;BME280;49075;53.988;27.678;2022-10-31T00:19:29;986.6;;;3.5;62.9
62980;BME280;49075;53.988;27.678;2022-10-31T00:24:07;986.6;;;3.5;62.6
62980;BME280;49075;53.988;27.678;2022-10-31T00:29:03;986.6;;;3.5;63.1
62980;BME280;49075;53.988;27.678;2022-10-31T00:34:11;986.6;;;3.4;63.1
62980;BME280;49075;53.988;27.678;2022-10-31T00:39:37;986.7;;;3.4;63.4
62980;BME280;49075;53.988;27.678;2022-10-31T00:44:39;986.7;;;3.3;63.1
62980;BME280;49075;53.988;27.678;2022-10-31T00:49:29;986.7;;;3.3;63.4
62980;BME280;49075;53.988;27.678;2022-10-31T00:54:03;986.6;;;3.3;62.9
62980;BME280;49075;53.988;27.678;2022-10-31T00:59:39;986.7;;;3.2;63.2
62980;BME280;49075;53.988;27.678;2022-10-31T01:04:39;986.7;;;3.2;62.8
62980;BME280;49075;53.988;27.678;2022-10-31T01:09:25;986.6;;;3.1;62.8
62980;BME280;49075;53.988;27.678;2022-10-31T01:14:25;986.7;;;3.1;62.8
62980;BME280;49075;53.988;27.678;2022-10-31T01:19:15;986.7;;;3;63
62980;BME280;49075;53.988;27.678;2022-10-31T01:24:37;986.7;;;3;62.9
62980;BME280;49075;53.988;27.678;2022-10-31T01:29:17;986.7;;;3;63.2
62980;BME280;49075;53.988;27.678;2022-10-31T01:34:09;986.8;;;2.9;63.3
62980;BME280;49075;53.988;27.678;2022-10-31T01:39:07;986.9;;;2.8;63.8
62980;BME280;49075;53.988;27.678;2022-10-31T01:44:48;986.9;;;2.7;63.8
62980;BME280;49075;53.988;27.678;2022-10-31T01:49:44;986.9;;;2.7;64
62980;BME280;49075;53.988;27.678;2022-10-31T01:54:21;987;;;2.6;64
62980;BME280;49075;53.988;27.678;2022-10-31T01:59:29;987;;;2.5;64.5
62980;BME280;49075;53.988;27.678;2022-10-31T02:04:33;987;;;2.5;64.4
62980;BME280;49075;53.988;27.678;2022-10-31T02:09:43;987.1;;;2.4;64.8
62980;BME280;49075;53.988;27.678;2022-10-31T02:14:41;987.1;;;2.4;64.6
62980;BME280;49075;53.988;27.678;2022-10-31T02:19:45;987.2;;;2.3;65.4
62980;BME280;49075;53.988;27.678;2022-10-31T02:24:40;987.2;;;2.3;65.2
62980;BME280;49075;53.988;27.678;2022-10-31T02:30:25;987.3;;;2.3;65.8
62980;BME280;49075;53.988;27.678;2022-10-31T02:34:44;987.3;;;2.3;65.7
62980;BME280;49075;53.988;27.678;2022-10-31T02:39:40;987.3;;;2.2;66.5
62980;BME280;49075;53.988;27.678;2022-10-31T02:44:20;987.4;;;2.2;66.1
62980;BME280;49075;53.988;27.678;2022-10-31T02:49:33;987.4;;;2.2;67
62980;BME280;49075;53.988;27.678;2022-10-31T02:54:43;987.4;;;2.1;67
62980;BME280;49075;53.988;27.678;2022-10-31T02:59:19;987.4;;;2;67.9
62980;BME280;49075;53.988;27.678;2022-10-31T03:04:16;987.4;;;2;67.8
62980;BME280;49075;53.988;27.678;2022-10-31T03:09:33;987.5;;;2;68.4
62980;BME280;49075;53.988;27.678;2022-10-31T03:14:31;987.5;;;1.9;68.8
62980;BME280;49075;53.988;27.678;2022-10-31T03:19:34;987.5;;;1.9;69.1
62980;BME280;49075;53.988;27.678;2022-10-31T03:24:01;987.6;;;1.8;69.1
62980;BME280;49075;53.988;27.678;2022-10-31T03:29:41;987.6;;;1.9;69.1
62980;BME280;49075;53.988;27.678;2022-10-31T03:34:41;987.7;;;1.8;69.5
62980;BME280;49075;53.988;27.678;2022-10-31T03:39:19;987.7;;;1.8;69.3
62980;BME280;49075;53.988;27.678;2022-10-31T03:44:29;987.8;;;1.8;69.7
62980;BME280;49075;53.988;27.678;2022-10-31T03:49:07;987.8;;;1.8;69.3
62980;BME280;49075;53.988;27.678;2022-10-31T03:54:18;987.9;;;1.7;70.2
62980;BME280;49075;53.988;27.678;2022-10-31T03:58:55;987.9;;;1.7;69.4
62980;BME280;49075;53.988;27.678;2022-10-31T04:04:33;988;;;1.7;70.2
62980;BME280;49075;53.988;27.678;2022-10-31T04:09:19;988;;;1.7;69.7
62980;BME280;49075;53.988;27.678;2022-10-31T04:14:43;988.1;;;1.6;70.6
62980;BME280;49075;53.988;27.678;2022-10-31T04:19:15;988.2;;;1.5;70.4
62980;BME280;49075;53.988;27.678;2022-10-31T04:24:43;988.2;;;1.5;71
62980;BME280;49075;53.988;27.678;2022-10-31T04:29:29;988.2;;;1.5;70.6
62980;BME280;49075;53.988;27.678;2022-10-31T04:34:21;988.3;;;1.4;71.5
62980;BME280;49075;53.988;27.678;2022-10-31T04:39:41;988.3;;;1.4;70.7
62980;BME280;49075;53.988;27.678;2022-10-31T04:44:43;988.3;;;1.4;71.2
62980;BME280;49075;53.988;27.678;2022-10-31T04:49:43;988.4;;;1.3;70.8
62980;BME280;49075;53.988;27.678;2022-10-31T04:54:19;988.4;;;1.3;71.7
62980;BME280;49075;53.988;27.678;2022-10-31T04:59:27;988.5;;;1.3;71.1
62980;BME280;49075;53.988;27.678;2022-10-31T05:04:07;988.5;;;1.2;71.4
62980;BME280;49075;53.988;27.678;2022-10-31T05:09:29;988.5;;;1.1;71.6
62980;BME280;49075;53.988;27.678;2022-10-31T05:14:19;988.5;;;1.2;71.4
62980;BME280;49075;53.988;27.678;2022-10-31T05:19:33;988.7;;;1.1;72
62980;BME280;49075;53.988;27.678;2022-10-31T05:24:19;988.8;;;1.2;71.6
62980;BME280;49075;53.988;27.678;2022-10-31T05:29:43;988.8;;;1.1;72.1
62980;BME280;49075;53.988;27.678;2022-10-31T05:34:09;988.9;;;1.1;71.7
62980;BME280;49075;53.988;27.678;2022-10-31T05:39:21;988.9;;;1.1;72.6
62980;BME280;49075;53.988;27.678;2022-10-31T05:44:29;989;;;1.1;72
62980;BME280;49075;53.988;27.678;2022-10-31T05:49:33;989;;;1.1;72.5
62980;BME280;49075;53.988;27.678;2022-10-31T05:54:03;989.1;;;1.2;71.7
62980;BME280;49075;53.988;27.678;2022-10-31T05:59:45;989;;;1.2;71.8
62980;BME280;49075;53.988;27.678;2022-10-31T06:04:45;989;;;2.2;70.3
62980;BME280;49075;53.988;27.678;2022-10-31T06:09:19;989;;;4.6;65.6
62980;BME280;49075;53.988;27.678;2022-10-31T06:14:43;989;;;6.6;61.6
62980;BME280;49075;53.988;27.678;2022-10-31T06:19:19;989.1;;;8.2;57.8
62980;BME280;49075;53.988;27.678;2022-10-31T06:24:43;989.2;;;9.6;55.5
62980;BME280;49075;53.988;27.678;2022-10-31T06:29:19;989.2;;;10.5;51.4
62980;BME280;49075;53.988;27.678;2022-10-31T06:34:33;989.1;;;11.3;51.2
62980;BME280;49075;53.988;27.678;2022-10-31T06:39:17;989.2;;;12.1;48.2
62980;BME280;49075;53.988;27.678;2022-10-31T06:44:41;989.2;;;12.7;47.5
62980;BME280;49075;53.988;27.678;2022-10-31T06:49:15;989.2;;;13.3;44.7
62980;BME280;49075;53.988;27.678;2022-10-31T06:54:33;989.3;;;13.8;44.5
62980;BME280;49075;53.988;27.678;2022-10-31T06:59:31;989.3;;;14.1;42.9
62980;BME280;49075;53.988;27.678;2022-10-31T07:04:33;989.4;;;14.5;42.3
62980;BME280;49075;53.988;27.678;2022-10-31T07:09:43;989.3;;;15;40.9
62980;BME280;49075;53.988;27.678;2022-10-31T07:14:45;989.3;;;15.6;39.7
62980;BME280;49075;53.988;27.678;2022-10-31T07:19:45;989.4;;;15.4;39.3
62980;BME280;49075;53.988;27.678;2022-10-31T07:24:07;989.4;;;14.8;37.6
62980;BME280;49075;53.988;27.678;2022-10-31T07:29:31;989.5;;;15;38.5
62980;BME280;49075;53.988;27.678;2022-10-31T07:34:07;989.4;;;14.7;36.9
62980;BME280;49075;53.988;27.678;2022-10-31T07:39:41;989.4;;;15.1;37.8
62980;BME280;49075;53.988;27.678;2022-10-31T07:44:17;989.4;;;15.2;35.5
62980;BME280;49075;53.988;27.678;2022-10-31T07:49:31;989.4;;;15.7;36.5
62980;BME280;49075;53.988;27.678;2022-10-31T07:54:17;989.4;;;15.3;34.4
62980;BME280;49075;53.988;27.678;2022-10-31T07:59:45;989.4;;;15.4;35.7
62980;BME280;49075;53.988;27.678;2022-10-31T08:04:17;989.4;;;15.3;35
62980;BME280;49075;53.988;27.678;2022-10-31T08:09:09;989.4;;;15.8;35.2
62980;BME280;49075;53.988;27.678;2022-10-31T08:14:31;989.4;;;15.9;34.1
62980;BME280;49075;53.988;27.678;2022-10-31T08:19:33;989.4;;;16.5;33.9
62980;BME280;49075;53.988;27.678;2022-10-31T08:24:27;989.5;;;17.4;32
62980;BME280;49075;53.988;27.678;2022-10-31T08:29:43;989.5;;;17.6;32.1
62980;BME280;49075;53.988;27.678;2022-10-31T08:34:19;989.6;;;18.2;31.2
62980;BME280;49075;53.988;27.678;2022-10-31T08:39:31;989.5;;;17.7;30.7
62980;BME280;49075;53.988;27.678;2022-10-31T08:44:07;989.5;;;17.7;30.6
62980;BME280;49075;53.988;27.678;2022-10-31T08:48:55;989.5;;;18.1;29.9
62980;BME280;49075;53.988;27.678;2022-10-31T08:54:03;989.6;;;17.9;30.2
62980;BME280;49075;53.988;27.678;2022-10-31T08:59:19;989.7;;;17.9;28.9
62980;BME280;49075;53.988;27.678;2022-10-31T09:04:07;989.7;;;18.7;29.2
62980;BME280;49075;53.988;27.678;2022-10-31T09:09:45;989.8;;;19.4;27.5
62980;BME280;49075;53.988;27.678;2022-10-31T09:14:07;989.9;;;19.7;27.5
62980;BME280;49075;53.988;27.678;2022-10-31T09:19:31;989.9;;;19.9;26.5
62980;BME280;49075;53.988;27.678;2022-10-31T09:24:31;990;;;19.5;27.4
62980;BME280;49075;53.988;27.678;2022-10-31T09:29:33;990;;;20.3;26.5
62980;BME280;49075;53.988;27.678;2022-10-31T09:34:45;990;;;20.8;26.3
62980;BME280;49075;53.988;27.678;2022-10-31T09:39:07;990;;;21.1;25.1
62980;BME280;49075;53.988;27.678;2022-10-31T09:44:33;990;;;21.2;25.7
62980;BME280;49075;53.988;27.678;2022-10-31T09:49:34;990;;;21;24.6
62980;BME280;49075;53.988;27.678;2022-10-31T09:54:32;990;;;20.8;25.9
62980;BME280;49075;53.988;27.678;2022-10-31T09:59:10;990;;;21.1;25.2
62980;BME280;49075;53.988;27.678;2022-10-31T10:04:12;990;;;21.8;25
62980;BME280;49075;53.988;27.678;2022-10-31T10:09:17;990;;;22.5;24
62980;BME280;49075;53.988;27.678;2022-10-31T10:14:50;990.1;;;22.8;23.6
62980;BME280;49075;53.988;27.678;2022-10-31T10:19:23;990.1;;;23.5;23.1
62980;BME280;49075;53.988;27.678;2022-10-31T10:24:52;990;;;23.7;22.5
62980;BME280;49075;53.988;27.678;2022-10-31T10:29:10;990.1;;;23;22.5
62980;BME280;49075;53.988;27.678;2022-10-31T10:34:31;990.1;;;22.4;22.5
62980;BME280;49075;53.988;27.678;2022-10-31T10:39:32;990;;;22.3;22.3
62980;BME280;49075;53.988;27.678;2022-10-31T10:44:33;990.1;;;22.4;22.1
62980;BME280;49075;53.988;27.678;2022-10-31T10:49:46;990.1;;;22.2;21.5
62980;BME280;49075;53.988;27.678;2022-10-31T10:54:13;990.1;;;20.7;22.6
62980;BME280;49075;53.988;27.678;2022-10-31T10:59:29;990.1;;;21.5;22.6
62980;BME280;49075;53.988;27.678;2022-10-31T11:04:31;990.1;;;21.8;22
62980;BME280;49075;53.988;27.678;2022-10-31T11:09:29;990.2;;;21.7;22.5
62980;BME280;49075;53.988;27.678;2022-10-31T11:14:34;990.2;;;20.4;23
62980;BME280;49075;53.988;27.678;2022-10-31T11:19:04;990.2;;;20.8;23.4
62980;BME280;49075;53.988;27.678;2022-10-31T11:24:12;990.2;;;20.6;23.3
62980;BME280;49075;53.988;27.678;2022-10-31T11:29:45;990.2;;;21.1;23.6
62980;BME280;49075;53.988;27.678;2022-10-31T11:34:23;990.2;;;21.6;22.9
62980;BME280;49075;53.988;27.678;2022-10-31T11:39:44;990.2;;;21.5;23.2
62980;BME280;49075;53.988;27.678;2022-10-31T11:44:10;990.3;;;20.7;23.7
62980;BME280;49075;53.988;27.678;2022-10-31T11:49:29;990.2;;;20;24
62980;BME280;49075;53.988;27.678;2022-10-31T11:54:32;990.3;;;19.1;25
62980;BME280;49075;53.988;27.678;2022-10-31T11:59:49;990.3;;;17.5;26.6
62980;BME280;49075;53.988;27.678;2022-10-31T12:04:46;990.3;;;16.3;28.2
62980;BME280;49075;53.988;27.678;2022-10-31T12:09:10;990.3;;;14.9;29.9
62980;BME280;49075;53.988;27.678;2022-10-31T12:14:33;990.3;;;14;30.9
62980;BME280;49075;53.988;27.678;2022-10-31T12:19:10;990.4;;;13;32.2
62980;BME280;49075;53.988;27.678;2022-10-31T12:24:25;990.4;;;12.2;33.1
62980;BME280;49075;53.988;27.678;2022-10-31T12:29:23;990.4;;;11.5;35
62980;BME280;49075;53.988;27.678;2022-10-31T12:34:14;990.4;;;10.9;35.5
62980;BME280;49075;53.988;27.678;2022-10-31T12:39:49;990.5;;;10.4;36.4
62980;BME280;49075;53.988;27.678;2022-10-31T12:44:53;990.4;;;10;36.7
62980;BME280;49075;53.988;27.678;2022-10-31T12:49:48;990.5;;;9.7;37.8
62980;BME280;49075;53.988;27.678;2022-10-31T12:54:49;990.5;;;9.5;37.7
62980;BME280;49075;53.988;27.678;2022-10-31T12:59:45;990.6;;;9.3;38.5
62980;BME280;49075;53.988;27.678;2022-10-31T13:04:35;990.6;;;9.2;38.6
62980;BME280;49075;53.988;27.678;2022-10-31T13:09:16;990.6;;;9;38.7
62980;BME280;49075;53.988;27.678;2022-10-31T13:14:34;990.5;;;9;38.6
62980;BME280;49075;53.988;27.678;2022-10-31T13:19:45;990.5;;;8.9;39
62980;BME280;49075;53.988;27.678;2022-10-31T13:24:47;990.5;;;9;38.8
62980;BME280;49075;53.988;27.678;2022-10-31T13:29:52;990.5;;;8.8;39.3
62980;BME280;49075;53.988;27.678;2022-10-31T13:34:32;990.5;;;8.7;39.4
62980;BME280;49075;53.988;27.678;2022-10-31T13:39:32;990.4;;;8.5;39.8
62980;BME280;49075;53.988;27.678;2022-10-31T13:44:20;990.5;;;8.4;39.9
62980;BME280;49075;53.988;27.678;2022-10-31T13:49:21;990.5;;;8.3;40.1
62980;BME280;49075;53.988;27.678;2022-10-31T13:54:23;990.5;;;8.4;40.2
62980;BME280;49075;53.988;27.678;2022-10-31T13:59:46;990.5;;;8.4;40.1
62980;BME280;49075;53.988;27.678;2022-10-31T14:04:20;990.6;;;8.5;40.5
62980;BME280;49075;53.988;27.678;2022-10-31T14:09:49;990.6;;;8.5;40.7
62980;BME280;49075;53.988;27.678;2022-10-31T14:13:55;990.6;;;8.3;41.8
62980;BME280;49075;53.988;27.678;2022-10-31T14:19:29;990.6;;;8.2;42.2
62980;BME280;49075;53.988;27.678;2022-10-31T14:24:45;990.6;;;8.1;43
62980;BME280;49075;53.988;27.678;2022-10-31T14:29:33;990.6;;;8;43
62980;BME280;49075;53.988;27.678;2022-10-31T14:34:43;990.6;;;7.9;43.8
62980;BME280;49075;53.988;27.678;2022-10-31T14:39:49;990.7;;;7.8;43.8
62980;BME280;49075;53.988;27.678;2022-10-31T14:44:50;990.7;;;7.7;44.5
62980;BME280;49075;53.988;27.678;2022-10-31T14:49:34;990.8;;;7.6;44.6
62980;BME280;49075;53.988;27.678;2022-10-31T14:54:32;990.8;;;7.5;45.6
62980;BME280;49075;53.988;27.678;2022-10-31T14:59:21;990.9;;;7.3;45.7
62980;BME280;49075;53.988;27.678;2022-10-31T15:04:45;990.9;;;7.2;46.8
62980;BME280;49075;53.988;27.678;2022-10-31T15:09:23;990.9;;;7.1;46.5
62980;BME280;49075;53.988;27.678;2022-10-31T15:14:45;990.9;;;7;47.2
62980;BME280;49075;53.988;27.678;2022-10-31T15:19:21;990.9;;;6.9;47.2
62980;BME280;49075;53.988;27.678;2022-10-31T15:24:45;990.9;;;7;47.8
62980;BME280;49075;53.988;27.678;2022-10-31T15:29:18;991;;;6.9;47.9
62980;BME280;49075;53.988;27.678;2022-10-31T15:34:32;991;;;6.8;48.5
62980;BME280;49075;53.988;27.678;2022-10-31T15:39:17;991;;;6.6;49
62980;BME280;49075;53.988;27.678;2022-10-31T15:44:34;991.1;;;6.6;48.9
62980;BME280;49075;53.988;27.678;2022-10-31T15:49:46;991;;;6.4;50.1
62980;BME280;49075;53.988;27.678;2022-10-31T15:54:45;991.1;;;6.4;49.4
62980;BME280;49075;53.988;27.678;2022-10-31T15:59:41;991.1;;;6.4;49.7
62980;BME280;49075;53.988;27.678;2022-10-31T16:04:27;991.1;;;6.3;49.7
62980;BME280;49075;53.988;27.678;2022-10-31T16:09:29;991.1;;;6.2;50.5
62980;BME280;49075;53.988;27.678;2022-10-31T16:14:18;991.2;;;6.1;50.3
62980;BME280;49075;53.988;27.678;2022-10-31T16:19:05;991.2;;;6.1;50.9
62980;BME280;49075;53.988;27.678;2022-10-31T16:24:15;991.2;;;6;51.5
62980;BME280;49075;53.988;27.678;2022-10-31T16:29:41;991.3;;;5.9;51.4
62980;BME280;49075;53.988;27.678;2022-10-31T16:34:13;991.4;;;5.7;52.1
62980;BME280;49075;53.988;27.678;2022-10-31T16:39:41;991.4;;;5.6;52.2
62980;BME280;49075;53.988;27.678;2022-10-31T16:44:14;991.4;;;5.5;53.1
62980;BME280;49075;53.988;27.678;2022-10-31T16:49:29;991.4;;;5.4;53.1
62980;BME280;49075;53.988;27.678;2022-10-31T16:54:15;991.4;;;5.4;53.8
62980;BME280;49075;53.988;27.678;2022-10-31T16:59:31;991.4;;;5.3;53.7
62980;BME280;49075;53.988;27.678;2022-10-31T17:04:43;991.5;;;5.3;54.5
62980;BME280;49075;53.988;27.678;2022-10-31T17:09:05;991.5;;;5.2;54.4
62980;BME280;49075;53.988;27.678;2022-10-31T17:13:55;991.6;;;5.1;54.8
62980;BME280;49075;53.988;27.678;2022-10-31T17:19:43;991.6;;;5.1;55.8
62980;BME280;49075;53.988;27.678;2022-10-31T17:24:29;991.6;;;5;56.2
62980;BME280;49075;53.988;27.678;2022-10-31T17:29:43;991.6;;;5.1;55.9
62980;BME280;49075;53.988;27.678;2022-10-31T17:34:05;991.7;;;5;57.1
62980;BME280;49075;53.988;27.678;2022-10-31T17:39:05;991.7;;;4.9;56.6
62980;BME280;49075;53.988;27.678;2022-10-31T17:44:43;991.7;;;4.8;57.7
62980;BME280;49075;53.988;27.678;2022-10-31T17:49:17;991.8;;;4.7;57.3
62980;BME280;49075;53.988;27.678;2022-10-31T17:54:43;991.8;;;4.6;58.8
62980;BME280;49075;53.988;27.678;2022-10-31T17:59:13;991.9;;;4.6;57.9
62980;BME280;49075;53.988;27.678;2022-10-31T18:04:07;992;;;4.6;58.6
62980;BME280;49075;53.988;27.678;2022-10-31T18:09:27;991.9;;;4.5;58.1
62980;BME280;49075;53.988;27.678;2022-10-31T18:14:32;992;;;4.5;58.3
62980;BME280;49075;53.988;27.678;2022-10-31T18:19:29;992;;;4.5;58.4
62980;BME280;49075;53.988;27.678;2022-10-31T18:24:05;992.1;;;4.5;58.7
62980;BME280;49075;53.988;27.678;2022-10-31T18:29:43;992.1;;;4.4;58.7
62980;BME280;49075;53.988;27.678;2022-10-31T18:34:43;992.2;;;4.4;59.3
62980;BME280;49075;53.988;27.678;2022-10-31T18:39:29;992.2;;;4.3;58.9
62980;BME280;49075;53.988;27.678;2022-10-31T18:44:17;992.2;;;4.3;59.2
62980;BME280;49075;53.988;27.678;2022-10-31T18:49:07;992.3;;;4.3;59.3
62980;BME280;49075;53.988;27.678;2022-10-31T18:54:44;992.3;;;4.3;59.3
62980;BME280;49075;53.988;27.678;2022-10-31T18:59:31;992.3;;;4.2;59.6
62980;BME280;49075;53.988;27.678;2022-10-31T19:03:55;992.3;;;4.2;59.6
62980;BME280;49075;53.988;27.678;2022-10-31T19:09:41;992.4;;;4.1;59.7
62980;BME280;49075;53.988;27.678;2022-10-31T19:14:13;992.4;;;4.1;59.6
62980;BME280;49075;53.988;27.678;2022-10-31T19:19:05;992.4;;;4;60.3
62980;BME280;49075;53.988;27.678;2022-10-31T19:24:15;992.5;;;3.9;59.9
62980;BME280;49075;53.988;27.678;2022-10-31T19:29:31;992.5;;;3.8;61.1
62980;BME280;49075;53.988;27.678;2022-10-31T19:34:27;992.4;;;3.7;60.4
62980;BME280;49075;53.988;27.678;2022-10-31T19:39:05;992.5;;;3.6;61
62980;BME280;49075;53.988;27.678;2022-10-31T19:44:05;992.5;;;3.5;61
62980;BME280;49075;53.988;27.678;2022-10-31T19:49:41;992.5;;;3.4;61.9
62980;BME280;49075;53.988;27.678;2022-10-31T19:54:27;992.5;;;3.3;61.5
62980;BME280;49075;53.988;27.678;2022-10-31T19:59:17;992.5;;;3.2;62.1
62980;BME280;49075;53.988;27.678;2022-10-31T20:04:43;992.6;;;3.1;62
62980;BME280;49075;53.988;27.678;2022-10-31T20:09:43;992.6;;;3;62.6
62980;BME280;49075;53.988;27.678;2022-10-31T20:14:41;992.6;;;3;62.1
62980;BME280;49075;53.988;27.678;2022-10-31T20:19:05;992.6;;;2.9;62.7
62980;BME280;49075;53.988;27.678;2022-10-31T20:24:43;992.6;;;2.9;62.2
62980;BME280;49075;53.988;27.678;2022-10-31T20:29:43;992.7;;;2.8;63
62980;BME280;49075;53.988;27.678;2022-10-31T20:34:05;992.7;;;2.7;62.8
62980;BME280;49075;53.988;27.678;2022-10-31T20:39:13;992.8;;;2.6;63.6
62980;BME280;49075;53.988;27.678;2022-10-31T20:44:31;992.7;;;2.7;63
62980;BME280;49075;53.988;27.678;2022-10-31T20:49:28;992.8;;;2.7;63.6
62980;BME280;49075;53.988;27.678;2022-10-31T20:53:56;992.8;;;2.6;62.9
62980;BME280;49075;53.988;27.678;2022-10-31T20:59:05;992.9;;;2.6;63.4
62980;BME280;49075;53.988;27.678;2022-10-31T21:04:41;992.9;;;2.6;62.8
62980;BME280;49075;53.988;27.678;2022-10-31T21:09:29;992.9;;;2.5;63.3
62980;BME280;49075;53.988;27.678;2022-10-31T21:14:17;992.8;;;2.5;63.2
62980;BME280;49075;53.988;27.678;2022-10-31T21:19:17;992.8;;;2.3;64.2
62980;BME280;49075;53.988;27.678;2022-10-31T21:24:09;992.7;;;2.3;63.7
62980;BME280;49075;53.988;27.678;2022-10-31T21:29:43;992.7;;;2.1;64.5
62980;BME280;49075;53.988;27.678;2022-10-31T21:34:17;992.7;;;2.1;64.3
62980;BME280;49075;53.988;27.678;2022-10-31T21:39:43;992.7;;;2;65.1
62980;BME280;49075;53.988;27.678;2022-10-31T21:44:15;992.7;;;2;64.3
62980;BME280;49075;53.988;27.678;2022-10-31T21:49:05;992.7;;;1.9;65
62980;BME280;49075;53.988;27.678;2022-10-31T21:54:15;992.7;;;1.9;64.6
62980;BME280;49075;53.988;27.678;2022-10-31T21:59:27;992.7;;;1.8;65
62980;BME280;49075;53.988;27.678;2022-10-31T22:04:09;992.7;;;1.8;64.6
62980;BME280;49075;53.988;27.678;2022-10-31T22:09:39;992.7;;;1.8;65.2
62980;BME280;49075;53.988;27.678;2022-10-31T22:14:01;992.7;;;1.7;65.3
62980;BME280;49075;53.988;27.678;2022-10-31T22:19:37;992.6;;;1.6;65.8
62980;BME280;49075;53.988;27.678;2022-10-31T22:24:25;992.6;;;1.6;65.6
62980;BME280;49075;53.988;27.678;2022-10-31T22:29:00;992.6;;;1.6;65.5
62980;BME280;49075;53.988;27.678;2022-10-31T22:34:05;992.6;;;1.7;65.3
62980;BME280;49075;53.988;27.678;2022-10-31T22:38:59;992.6;;;1.7;64.9
62980;BME280;49075;53.988;27.678;2022-10-31T22:44:37;992.6;;;1.7;64.9
62980;BME280;49075;53.988;27.678;2022-10-31T22:49:09;992.5;;;1.6;64.7
62980;BME280;49075;53.988;27.678;2022-10-31T22:54:39;992.6;;;1.5;65.4
62980;BME280;49075;53.988;27.678;2022-10-31T22:59:37;992.6;;;1.4;65.3
62980;BME280;49075;53.988;27.678;2022-10-31T23:04:01;992.6;;;1.4;65.4
62980;BME280;49075;53.988;27.678;2022-10-31T23:09:04;992.6;;;1.4;65
62980;BME280;49075;53.988;27.678;2022-10-31T23:14:27;992.5;;;1.4;65.2
62980;BME280;49075;53.988;27.678;2022-10-31T23:19:12;992.6;;;1.3;65.2
62980;BME280;49075;53.988;27.678;2022-10-31T23:24:40;992.5;;;1.3;65.6
62980;BME280;49075;53.988;27.678;2022-10-31T23:29:01;992.5;;;1.3;65.5
62980;BME280;49075;53.988;27.678;2022-10-31T23:34:39;992.6;;;1.3;65.8
62980;BME280;49075;53.988;27.678;2022-10-31T23:39:23;992.6;;;1.4;65.2
62980;BME280;49075;53.988;27.678;2022-10-31T23:44:11;992.6;;;1.4;65.5
62980;BME280;49075;53.988;27.678;2022-10-31T23:49:01;992.6;;;1.4;65.2
62980;BME280;49075;53.988;27.678;2022-10-31T23:54:37;992.6;;;1.2;65.9
62980;BME280;49075;53.988;27.678;2022-10-31T23:59:35;992.6;;;1.3;65.7
